sensor_id;sensor_type;location;lat;lon;timestamp;P1;durP1;ratioP1;P2;durP2;ratioP2
19038;SDS011;9652;49.014;12.052;2023-06-22T00:01:17;6.23;;;3.93;;
19038;SDS011;9652;49.014;12.052;2023-06-22T00:03:46;6.23;;;3.93;;
19038;SDS011;9652;49.014;12.052;2023-06-22T00:06:13;7.33;;;4.10;;
19038;SDS011;9652;49.014;12.052;2023-06-22T00:08:40;5.43;;;4.37;;
19038;SDS011;9652;49.014;12.052;2023-06-22T00:11:08;10.50;;;4.53;;
19038;SDS011;9652;49.014;12.052;2023-06-22T00:13:37;5.83;;;4.10;;
19038;SDS011;9652;49.014;12.052;2023-06-22T00:16:04;4.97;;;3.70;;
19038;SDS011;9652;49.014;12.052;2023-06-22T00:18:32;8.23;;;4.00;;
19038;SDS011;9652;49.014;12.052;2023-06-22T00:20:59;5.70;;;4.20;;
19038;SDS011;9652;49.014;12.052;2023-06-22T00:23:26;7.30;;;4.20;;
19038;SDS011;9652;49.014;12.052;2023-06-22T00:25:53;6.83;;;3.97;;
19038;SDS011;9652;49.014;12.052;2023-06-22T00:28:21;5.40;;;3.87;;
19038;SDS011;9652;49.014;12.052;2023-06-22T00:30:49;5.63;;;3.83;;
19038;SDS011;9652;49.014;12.052;2023-06-22T00:33:17;6.07;;;4.10;;
19038;SDS011;9652;49.014;12.052;2023-06-22T00:35:44;5.17;;;4.23;;
19038;SDS011;9652;49.014;12.052;2023-06-22T00:38:11;4.73;;;3.90;;
19038;SDS011;9652;49.014;12.052;2023-06-22T00:40:41;6.37;;;4.30;;
19038;SDS011;9652;49.014;12.052;2023-06-22T00:43:08;5.03;;;3.93;;
19038;SDS011;9652;49.014;12.052;2023-06-22T00:45:35;5.97;;;4.43;;
19038;SDS011;9652;49.014;12.052;2023-06-22T00:48:04;6.30;;;3.97;;
19038;SDS011;9652;49.014;12.052;2023-06-22T00:50:34;6.60;;;4.40;;
19038;SDS011;9652;49.014;12.052;2023-06-22T00:53:03;5.00;;;4.47;;
19038;SDS011;9652;49.014;12.052;2023-06-22T00:55:33;5.83;;;4.57;;
19038;SDS011;9652;49.014;12.052;2023-06-22T00:58:03;6.00;;;4.70;;
19038;SDS011;9652;49.014;12.052;2023-06-22T01:00:35;8.17;;;4.73;;
19038;SDS011;9652;49.014;12.052;2023-06-22T01:03:04;7.07;;;4.80;;
19038;SDS011;9652;49.014;12.052;2023-06-22T01:05:34;6.20;;;4.53;;
19038;SDS011;9652;49.014;12.052;2023-06-22T01:08:06;6.03;;;4.23;;
19038;SDS011;9652;49.014;12.052;2023-06-22T01:10:48;5.33;;;4.50;;
19038;SDS011;9652;49.014;12.052;2023-06-22T01:13:23;6.07;;;4.33;;
19038;SDS011;9652;49.014;12.052;2023-06-22T01:15:59;7.93;;;4.67;;
19038;SDS011;9652;49.014;12.052;2023-06-22T01:18:33;6.70;;;4.13;;
19038;SDS011;9652;49.014;12.052;2023-06-22T01:21:06;5.73;;;4.50;;
19038;SDS011;9652;49.014;12.052;2023-06-22T01:23:40;11.57;;;5.10;;
19038;SDS011;9652;49.014;12.052;2023-06-22T01:26:25;5.03;;;3.97;;
19038;SDS011;9652;49.014;12.052;2023-06-22T01:29:05;4.53;;;3.87;;
19038;SDS011;9652;49.014;12.052;2023-06-22T01:31:34;5.97;;;4.43;;
19038;SDS011;9652;49.014;12.052;2023-06-22T01:34:02;6.60;;;3.90;;
19038;SDS011;9652;49.014;12.052;2023-06-22T01:36:34;5.07;;;4.00;;
19038;SDS011;9652;49.014;12.052;2023-06-22T01:39:04;4.87;;;3.93;;
19038;SDS011;9652;49.014;12.052;2023-06-22T01:41:34;6.67;;;4.03;;
19038;SDS011;9652;49.014;12.052;2023-06-22T01:44:05;5.30;;;4.70;;
19038;SDS011;9652;49.014;12.052;2023-06-22T01:46:34;5.47;;;4.40;;
19038;SDS011;9652;49.014;12.052;2023-06-22T01:49:06;5.27;;;4.27;;
19038;SDS011;9652;49.014;12.052;2023-06-22T01:51:35;6.93;;;4.73;;
19038;SDS011;9652;49.014;12.052;2023-06-22T01:54:02;9.03;;;3.97;;
19038;SDS011;9652;49.014;12.052;2023-06-22T01:56:32;5.87;;;4.00;;
19038;SDS011;9652;49.014;12.052;2023-06-22T01:59:01;4.93;;;3.80;;
19038;SDS011;9652;49.014;12.052;2023-06-22T02:01:40;6.13;;;3.90;;
19038;SDS011;9652;49.014;12.052;2023-06-22T02:04:15;6.23;;;3.83;;
19038;SDS011;9652;49.014;12.052;2023-06-22T02:06:49;5.10;;;3.83;;
19038;SDS011;9652;49.014;12.052;2023-06-22T02:09:23;5.07;;;4.10;;
19038;SDS011;9652;49.014;12.052;2023-06-22T02:11:55;5.73;;;4.13;;
19038;SDS011;9652;49.014;12.052;2023-06-22T02:14:26;4.20;;;3.73;;
19038;SDS011;9652;49.014;12.052;2023-06-22T02:16:53;5.20;;;4.20;;
19038;SDS011;9652;49.014;12.052;2023-06-22T02:19:24;5.03;;;4.13;;
19038;SDS011;9652;49.014;12.052;2023-06-22T02:21:53;5.60;;;3.90;;
19038;SDS011;9652;49.014;12.052;2023-06-22T02:24:20;5.27;;;4.23;;
19038;SDS011;9652;49.014;12.052;2023-06-22T02:26:48;5.00;;;4.07;;
19038;SDS011;9652;49.014;12.052;2023-06-22T02:29:16;7.00;;;4.53;;
19038;SDS011;9652;49.014;12.052;2023-06-22T02:31:44;4.60;;;4.20;;
19038;SDS011;9652;49.014;12.052;2023-06-22T02:34:11;4.00;;;3.60;;
19038;SDS011;9652;49.014;12.052;2023-06-22T02:36:43;5.17;;;4.47;;
19038;SDS011;9652;49.014;12.052;2023-06-22T02:39:16;5.43;;;4.23;;
19038;SDS011;9652;49.014;12.052;2023-06-22T02:41:45;5.30;;;4.17;;
19038;SDS011;9652;49.014;12.052;2023-06-22T02:44:12;4.30;;;3.77;;
19038;SDS011;9652;49.014;12.052;2023-06-22T02:46:39;4.70;;;4.03;;
19038;SDS011;9652;49.014;12.052;2023-06-22T02:49:08;4.57;;;4.03;;
19038;SDS011;9652;49.014;12.052;2023-06-22T02:51:38;6.10;;;3.87;;
19038;SDS011;9652;49.014;12.052;2023-06-22T02:54:07;4.27;;;3.83;;
19038;SDS011;9652;49.014;12.052;2023-06-22T02:56:36;8.23;;;4.20;;
19038;SDS011;9652;49.014;12.052;2023-06-22T02:59:03;4.87;;;4.43;;
19038;SDS011;9652;49.014;12.052;2023-06-22T03:01:36;6.30;;;4.37;;
19038;SDS011;9652;49.014;12.052;2023-06-22T03:04:09;6.20;;;4.60;;
19038;SDS011;9652;49.014;12.052;2023-06-22T03:06:36;7.40;;;4.43;;
19038;SDS011;9652;49.014;12.052;2023-06-22T03:09:05;4.80;;;4.17;;
19038;SDS011;9652;49.014;12.052;2023-06-22T03:11:34;4.90;;;4.20;;
19038;SDS011;9652;49.014;12.052;2023-06-22T03:14:02;5.70;;;4.47;;
19038;SDS011;9652;49.014;12.052;2023-06-22T03:16:29;4.50;;;4.10;;
19038;SDS011;9652;49.014;12.052;2023-06-22T03:18:57;5.10;;;4.33;;
19038;SDS011;9652;49.014;12.052;2023-06-22T03:21:26;6.37;;;4.13;;
19038;SDS011;9652;49.014;12.052;2023-06-22T03:23:55;9.07;;;4.43;;
19038;SDS011;9652;49.014;12.052;2023-06-22T03:26:22;9.00;;;4.50;;
19038;SDS011;9652;49.014;12.052;2023-06-22T03:28:51;5.40;;;4.67;;
19038;SDS011;9652;49.014;12.052;2023-06-22T03:31:18;5.23;;;4.23;;
19038;SDS011;9652;49.014;12.052;2023-06-22T03:33:46;5.73;;;4.00;;
19038;SDS011;9652;49.014;12.052;2023-06-22T03:36:14;6.07;;;4.43;;
19038;SDS011;9652;49.014;12.052;2023-06-22T03:38:45;5.37;;;4.03;;
19038;SDS011;9652;49.014;12.052;2023-06-22T03:41:14;5.97;;;4.20;;
19038;SDS011;9652;49.014;12.052;2023-06-22T03:43:41;5.57;;;3.37;;
19038;SDS011;9652;49.014;12.052;2023-06-22T03:46:09;5.63;;;4.57;;
19038;SDS011;9652;49.014;12.052;2023-06-22T03:48:36;5.00;;;3.77;;
19038;SDS011;9652;49.014;12.052;2023-06-22T03:51:04;5.07;;;4.03;;
19038;SDS011;9652;49.014;12.052;2023-06-22T03:53:31;4.43;;;3.60;;
19038;SDS011;9652;49.014;12.052;2023-06-22T03:55:59;4.10;;;3.70;;
19038;SDS011;9652;49.014;12.052;2023-06-22T03:58:26;6.07;;;3.97;;
19038;SDS011;9652;49.014;12.052;2023-06-22T04:00:58;4.13;;;3.60;;
19038;SDS011;9652;49.014;12.052;2023-06-22T04:03:25;5.67;;;4.13;;
19038;SDS011;9652;49.014;12.052;2023-06-22T04:05:52;9.40;;;4.80;;
19038;SDS011;9652;49.014;12.052;2023-06-22T04:08:20;5.17;;;4.67;;
19038;SDS011;9652;49.014;12.052;2023-06-22T04:10:47;6.27;;;5.23;;
19038;SDS011;9652;49.014;12.052;2023-06-22T04:13:16;5.77;;;5.17;;
19038;SDS011;9652;49.014;12.052;2023-06-22T04:15:43;7.23;;;4.80;;
19038;SDS011;9652;49.014;12.052;2023-06-22T04:18:10;6.00;;;4.90;;
19038;SDS011;9652;49.014;12.052;2023-06-22T04:20:37;6.93;;;4.73;;
19038;SDS011;9652;49.014;12.052;2023-06-22T04:23:04;6.60;;;5.07;;
19038;SDS011;9652;49.014;12.052;2023-06-22T04:25:31;6.57;;;4.63;;
19038;SDS011;9652;49.014;12.052;2023-06-22T04:27:58;6.67;;;5.43;;
19038;SDS011;9652;49.014;12.052;2023-06-22T04:30:29;6.87;;;5.07;;
19038;SDS011;9652;49.014;12.052;2023-06-22T04:32:59;6.87;;;5.80;;
19038;SDS011;9652;49.014;12.052;2023-06-22T04:35:26;8.07;;;5.37;;
19038;SDS011;9652;49.014;12.052;2023-06-22T04:37:55;7.37;;;5.80;;
19038;SDS011;9652;49.014;12.052;2023-06-22T04:40:24;5.50;;;4.90;;
19038;SDS011;9652;49.014;12.052;2023-06-22T04:42:51;6.97;;;5.33;;
19038;SDS011;9652;49.014;12.052;2023-06-22T04:45:20;6.03;;;4.77;;
19038;SDS011;9652;49.014;12.052;2023-06-22T04:47:48;5.30;;;4.80;;
19038;SDS011;9652;49.014;12.052;2023-06-22T04:50:16;7.00;;;5.23;;
19038;SDS011;9652;49.014;12.052;2023-06-22T04:52:46;5.57;;;4.77;;
19038;SDS011;9652;49.014;12.052;2023-06-22T04:55:13;5.80;;;4.50;;
19038;SDS011;9652;49.014;12.052;2023-06-22T04:57:43;5.50;;;5.00;;
19038;SDS011;9652;49.014;12.052;2023-06-22T05:00:14;6.13;;;4.60;;
19038;SDS011;9652;49.014;12.052;2023-06-22T05:02:42;5.30;;;4.57;;
19038;SDS011;9652;49.014;12.052;2023-06-22T05:05:12;9.40;;;5.33;;
19038;SDS011;9652;49.014;12.052;2023-06-22T05:07:40;6.50;;;5.50;;
19038;SDS011;9652;49.014;12.052;2023-06-22T05:10:09;8.77;;;6.00;;
19038;SDS011;9652;49.014;12.052;2023-06-22T05:12:38;6.20;;;5.03;;
19038;SDS011;9652;49.014;12.052;2023-06-22T05:15:06;5.23;;;4.17;;
19038;SDS011;9652;49.014;12.052;2023-06-22T05:17:34;5.63;;;4.57;;
19038;SDS011;9652;49.014;12.052;2023-06-22T05:20:08;5.63;;;4.30;;
19038;SDS011;9652;49.014;12.052;2023-06-22T05:22:37;6.27;;;4.27;;
19038;SDS011;9652;49.014;12.052;2023-06-22T05:25:05;6.03;;;5.13;;
19038;SDS011;9652;49.014;12.052;2023-06-22T05:27:35;8.33;;;5.73;;
19038;SDS011;9652;49.014;12.052;2023-06-22T05:30:05;8.57;;;5.13;;
19038;SDS011;9652;49.014;12.052;2023-06-22T05:32:33;6.83;;;5.30;;
19038;SDS011;9652;49.014;12.052;2023-06-22T05:35:00;6.03;;;4.87;;
19038;SDS011;9652;49.014;12.052;2023-06-22T05:37:28;6.53;;;4.70;;
19038;SDS011;9652;49.014;12.052;2023-06-22T05:39:57;5.60;;;4.83;;
19038;SDS011;9652;49.014;12.052;2023-06-22T05:42:24;6.33;;;4.23;;
19038;SDS011;9652;49.014;12.052;2023-06-22T05:44:51;7.03;;;5.50;;
19038;SDS011;9652;49.014;12.052;2023-06-22T05:47:19;5.53;;;4.93;;
19038;SDS011;9652;49.014;12.052;2023-06-22T05:49:46;7.50;;;5.27;;
19038;SDS011;9652;49.014;12.052;2023-06-22T05:52:13;8.93;;;5.63;;
19038;SDS011;9652;49.014;12.052;2023-06-22T05:54:40;7.90;;;5.37;;
19038;SDS011;9652;49.014;12.052;2023-06-22T05:57:09;9.93;;;5.33;;
19038;SDS011;9652;49.014;12.052;2023-06-22T05:59:36;8.00;;;5.70;;
19038;SDS011;9652;49.014;12.052;2023-06-22T06:02:03;7.30;;;5.17;;
19038;SDS011;9652;49.014;12.052;2023-06-22T06:04:31;12.60;;;8.23;;
19038;SDS011;9652;49.014;12.052;2023-06-22T06:06:58;11.00;;;7.47;;
19038;SDS011;9652;49.014;12.052;2023-06-22T06:09:26;7.67;;;6.03;;
19038;SDS011;9652;49.014;12.052;2023-06-22T06:11:53;8.70;;;5.83;;
19038;SDS011;9652;49.014;12.052;2023-06-22T06:14:21;7.13;;;5.17;;
19038;SDS011;9652;49.014;12.052;2023-06-22T06:16:48;5.93;;;4.80;;
19038;SDS011;9652;49.014;12.052;2023-06-22T06:19:15;7.43;;;5.60;;
19038;SDS011;9652;49.014;12.052;2023-06-22T06:21:42;6.70;;;5.10;;
19038;SDS011;9652;49.014;12.052;2023-06-22T06:24:09;7.43;;;5.03;;
19038;SDS011;9652;49.014;12.052;2023-06-22T06:26:36;9.50;;;6.23;;
19038;SDS011;9652;49.014;12.052;2023-06-22T06:29:03;6.27;;;5.23;;
19038;SDS011;9652;49.014;12.052;2023-06-22T06:31:32;7.50;;;5.23;;
19038;SDS011;9652;49.014;12.052;2023-06-22T06:33:59;7.37;;;4.80;;
19038;SDS011;9652;49.014;12.052;2023-06-22T06:36:26;7.03;;;4.70;;
19038;SDS011;9652;49.014;12.052;2023-06-22T06:38:53;6.73;;;4.90;;
19038;SDS011;9652;49.014;12.052;2023-06-22T06:41:20;6.10;;;4.37;;
19038;SDS011;9652;49.014;12.052;2023-06-22T06:43:47;8.27;;;5.70;;
19038;SDS011;9652;49.014;12.052;2023-06-22T06:46:14;7.63;;;5.27;;
19038;SDS011;9652;49.014;12.052;2023-06-22T06:48:42;6.40;;;4.40;;
19038;SDS011;9652;49.014;12.052;2023-06-22T06:51:09;6.30;;;4.60;;
19038;SDS011;9652;49.014;12.052;2023-06-22T06:53:37;5.57;;;4.47;;
19038;SDS011;9652;49.014;12.052;2023-06-22T06:56:04;6.10;;;4.90;;
19038;SDS011;9652;49.014;12.052;2023-06-22T06:58:31;6.10;;;4.40;;
19038;SDS011;9652;49.014;12.052;2023-06-22T07:00:59;10.00;;;4.50;;
19038;SDS011;9652;49.014;12.052;2023-06-22T07:03:26;5.17;;;4.23;;
19038;SDS011;9652;49.014;12.052;2023-06-22T07:05:54;5.63;;;4.10;;
19038;SDS011;9652;49.014;12.052;2023-06-22T07:08:21;5.97;;;4.37;;
19038;SDS011;9652;49.014;12.052;2023-06-22T07:10:48;6.27;;;4.70;;
19038;SDS011;9652;49.014;12.052;2023-06-22T07:13:15;4.93;;;4.00;;
19038;SDS011;9652;49.014;12.052;2023-06-22T07:15:42;5.70;;;4.13;;
19038;SDS011;9652;49.014;12.052;2023-06-22T07:18:09;4.83;;;4.27;;
19038;SDS011;9652;49.014;12.052;2023-06-22T07:20:36;5.37;;;4.27;;
19038;SDS011;9652;49.014;12.052;2023-06-22T07:23:05;6.07;;;4.00;;
19038;SDS011;9652;49.014;12.052;2023-06-22T07:25:32;5.80;;;4.00;;
19038;SDS011;9652;49.014;12.052;2023-06-22T07:28:01;6.17;;;3.67;;
19038;SDS011;9652;49.014;12.052;2023-06-22T07:30:30;5.37;;;3.90;;
19038;SDS011;9652;49.014;12.052;2023-06-22T07:33:00;4.20;;;3.70;;
19038;SDS011;9652;49.014;12.052;2023-06-22T07:35:29;5.57;;;3.63;;
19038;SDS011;9652;49.014;12.052;2023-06-22T07:37:56;4.57;;;3.60;;
19038;SDS011;9652;49.014;12.052;2023-06-22T07:40:25;5.37;;;3.97;;
19038;SDS011;9652;49.014;12.052;2023-06-22T07:42:52;4.47;;;3.30;;
19038;SDS011;9652;49.014;12.052;2023-06-22T07:45:19;5.33;;;3.30;;
19038;SDS011;9652;49.014;12.052;2023-06-22T07:47:46;4.35;;;3.50;;
19038;SDS011;9652;49.014;12.052;2023-06-22T07:50:13;5.60;;;4.13;;
19038;SDS011;9652;49.014;12.052;2023-06-22T07:52:40;6.72;;;3.35;;
19038;SDS011;9652;49.014;12.052;2023-06-22T07:55:08;4.77;;;3.50;;
19038;SDS011;9652;49.014;12.052;2023-06-22T07:57:36;7.15;;;3.33;;
19038;SDS011;9652;49.014;12.052;2023-06-22T08:00:04;4.03;;;3.10;;
19038;SDS011;9652;49.014;12.052;2023-06-22T08:02:38;3.93;;;3.07;;
19038;SDS011;9652;49.014;12.052;2023-06-22T08:05:06;6.83;;;4.13;;
19038;SDS011;9652;49.014;12.052;2023-06-22T08:07:34;4.68;;;3.33;;
19038;SDS011;9652;49.014;12.052;2023-06-22T08:10:03;5.13;;;3.50;;
19038;SDS011;9652;49.014;12.052;2023-06-22T08:12:31;4.90;;;3.23;;
19038;SDS011;9652;49.014;12.052;2023-06-22T08:14:59;7.22;;;3.38;;
19038;SDS011;9652;49.014;12.052;2023-06-22T08:17:26;4.38;;;3.22;;
19038;SDS011;9652;49.014;12.052;2023-06-22T08:19:53;6.37;;;3.27;;
19038;SDS011;9652;49.014;12.052;2023-06-22T08:22:21;4.63;;;2.90;;
19038;SDS011;9652;49.014;12.052;2023-06-22T08:24:48;7.63;;;3.30;;
19038;SDS011;9652;49.014;12.052;2023-06-22T08:27:15;4.43;;;3.00;;
19038;SDS011;9652;49.014;12.052;2023-06-22T08:29:44;5.47;;;3.58;;
19038;SDS011;9652;49.014;12.052;2023-06-22T08:32:12;3.03;;;2.47;;
19038;SDS011;9652;49.014;12.052;2023-06-22T08:34:39;4.55;;;3.17;;
19038;SDS011;9652;49.014;12.052;2023-06-22T08:37:08;3.72;;;2.80;;
19038;SDS011;9652;49.014;12.052;2023-06-22T08:39:35;6.55;;;3.20;;
19038;SDS011;9652;49.014;12.052;2023-06-22T08:42:02;7.22;;;3.08;;
19038;SDS011;9652;49.014;12.052;2023-06-22T08:44:30;3.70;;;3.00;;
19038;SDS011;9652;49.014;12.052;2023-06-22T08:46:57;6.47;;;3.20;;
19038;SDS011;9652;49.014;12.052;2023-06-22T08:49:25;3.92;;;3.03;;
19038;SDS011;9652;49.014;12.052;2023-06-22T08:51:52;5.35;;;2.78;;
19038;SDS011;9652;49.014;12.052;2023-06-22T08:54:21;4.45;;;3.00;;
19038;SDS011;9652;49.014;12.052;2023-06-22T08:56:49;3.47;;;2.90;;
19038;SDS011;9652;49.014;12.052;2023-06-22T08:59:16;4.65;;;2.83;;
19038;SDS011;9652;49.014;12.052;2023-06-22T09:01:43;6.05;;;2.63;;
19038;SDS011;9652;49.014;12.052;2023-06-22T09:04:14;4.88;;;3.03;;
19038;SDS011;9652;49.014;12.052;2023-06-22T09:06:42;3.78;;;2.53;;
19038;SDS011;9652;49.014;12.052;2023-06-22T09:09:12;5.00;;;2.70;;
19038;SDS011;9652;49.014;12.052;2023-06-22T09:11:39;5.78;;;2.63;;
19038;SDS011;9652;49.014;12.052;2023-06-22T09:14:06;3.50;;;2.50;;
19038;SDS011;9652;49.014;12.052;2023-06-22T09:16:33;4.72;;;2.60;;
19038;SDS011;9652;49.014;12.052;2023-06-22T09:19:01;3.90;;;2.80;;
19038;SDS011;9652;49.014;12.052;2023-06-22T09:21:28;4.75;;;3.13;;
19038;SDS011;9652;49.014;12.052;2023-06-22T09:23:56;4.20;;;2.92;;
19038;SDS011;9652;49.014;12.052;2023-06-22T09:26:23;4.70;;;2.97;;
19038;SDS011;9652;49.014;12.052;2023-06-22T09:28:50;4.22;;;2.85;;
19038;SDS011;9652;49.014;12.052;2023-06-22T09:31:17;4.13;;;2.90;;
19038;SDS011;9652;49.014;12.052;2023-06-22T09:33:50;3.63;;;2.88;;
19038;SDS011;9652;49.014;12.052;2023-06-22T09:36:19;5.32;;;3.22;;
19038;SDS011;9652;49.014;12.052;2023-06-22T09:38:47;4.88;;;3.05;;
19038;SDS011;9652;49.014;12.052;2023-06-22T09:41:21;4.25;;;2.78;;
19038;SDS011;9652;49.014;12.052;2023-06-22T09:43:50;4.50;;;2.90;;
19038;SDS011;9652;49.014;12.052;2023-06-22T09:46:17;4.05;;;2.80;;
19038;SDS011;9652;49.014;12.052;2023-06-22T09:48:46;3.53;;;2.80;;
19038;SDS011;9652;49.014;12.052;2023-06-22T09:51:14;4.95;;;3.22;;
19038;SDS011;9652;49.014;12.052;2023-06-22T09:53:41;6.13;;;3.20;;
19038;SDS011;9652;49.014;12.052;2023-06-22T09:56:09;4.15;;;2.72;;
19038;SDS011;9652;49.014;12.052;2023-06-22T09:58:41;3.88;;;2.75;;
19038;SDS011;9652;49.014;12.052;2023-06-22T10:01:08;3.80;;;2.60;;
19038;SDS011;9652;49.014;12.052;2023-06-22T10:03:36;4.45;;;2.90;;
19038;SDS011;9652;49.014;12.052;2023-06-22T10:06:03;4.22;;;2.80;;
19038;SDS011;9652;49.014;12.052;2023-06-22T10:08:30;5.50;;;3.35;;
19038;SDS011;9652;49.014;12.052;2023-06-22T10:10:57;4.90;;;2.72;;
19038;SDS011;9652;49.014;12.052;2023-06-22T10:13:24;4.38;;;2.90;;
19038;SDS011;9652;49.014;12.052;2023-06-22T10:15:52;5.45;;;2.70;;
19038;SDS011;9652;49.014;12.052;2023-06-22T10:18:19;4.00;;;3.03;;
19038;SDS011;9652;49.014;12.052;2023-06-22T10:20:48;5.25;;;3.20;;
19038;SDS011;9652;49.014;12.052;2023-06-22T10:23:17;5.15;;;3.03;;
19038;SDS011;9652;49.014;12.052;2023-06-22T10:25:44;3.75;;;2.97;;
19038;SDS011;9652;49.014;12.052;2023-06-22T10:28:11;3.63;;;2.97;;
19038;SDS011;9652;49.014;12.052;2023-06-22T10:30:38;7.15;;;2.78;;
19038;SDS011;9652;49.014;12.052;2023-06-22T10:33:08;4.13;;;2.88;;
19038;SDS011;9652;49.014;12.052;2023-06-22T10:35:35;9.40;;;3.08;;
19038;SDS011;9652;49.014;12.052;2023-06-22T10:38:03;3.65;;;2.90;;
19038;SDS011;9652;49.014;12.052;2023-06-22T10:40:31;4.28;;;3.08;;
19038;SDS011;9652;49.014;12.052;2023-06-22T10:42:58;6.18;;;2.83;;
19038;SDS011;9652;49.014;12.052;2023-06-22T10:45:25;4.07;;;3.30;;
19038;SDS011;9652;49.014;12.052;2023-06-22T10:47:53;3.45;;;2.95;;
19038;SDS011;9652;49.014;12.052;2023-06-22T10:50:21;3.47;;;2.70;;
19038;SDS011;9652;49.014;12.052;2023-06-22T10:52:49;3.80;;;2.15;;
19038;SDS011;9652;49.014;12.052;2023-06-22T10:55:16;5.80;;;2.88;;
19038;SDS011;9652;49.014;12.052;2023-06-22T10:57:43;5.82;;;3.00;;
19038;SDS011;9652;49.014;12.052;2023-06-22T11:00:12;6.47;;;3.00;;
19038;SDS011;9652;49.014;12.052;2023-06-22T11:02:41;5.60;;;2.60;;
19038;SDS011;9652;49.014;12.052;2023-06-22T11:05:08;4.38;;;3.08;;
19038;SDS011;9652;49.014;12.052;2023-06-22T11:07:36;4.38;;;2.88;;
19038;SDS011;9652;49.014;12.052;2023-06-22T11:10:04;4.47;;;3.20;;
19038;SDS011;9652;49.014;12.052;2023-06-22T11:12:33;5.22;;;3.33;;
19038;SDS011;9652;49.014;12.052;2023-06-22T11:15:00;5.43;;;3.00;;
19038;SDS011;9652;49.014;12.052;2023-06-22T11:17:27;3.90;;;3.30;;
19038;SDS011;9652;49.014;12.052;2023-06-22T11:19:54;5.10;;;2.83;;
19038;SDS011;9652;49.014;12.052;2023-06-22T11:22:22;7.22;;;2.67;;
19038;SDS011;9652;49.014;12.052;2023-06-22T11:24:50;8.45;;;3.10;;
19038;SDS011;9652;49.014;12.052;2023-06-22T11:27:17;6.65;;;3.30;;
19038;SDS011;9652;49.014;12.052;2023-06-22T11:29:44;5.80;;;3.03;;
19038;SDS011;9652;49.014;12.052;2023-06-22T11:32:11;4.22;;;2.72;;
19038;SDS011;9652;49.014;12.052;2023-06-22T11:34:39;6.38;;;2.88;;
19038;SDS011;9652;49.014;12.052;2023-06-22T11:37:06;5.78;;;2.95;;
19038;SDS011;9652;49.014;12.052;2023-06-22T11:39:33;4.45;;;3.20;;
19038;SDS011;9652;49.014;12.052;2023-06-22T11:42:02;4.35;;;2.75;;
19038;SDS011;9652;49.014;12.052;2023-06-22T11:44:29;6.85;;;3.30;;
19038;SDS011;9652;49.014;12.052;2023-06-22T11:46:56;4.55;;;2.88;;
19038;SDS011;9652;49.014;12.052;2023-06-22T11:49:23;8.32;;;2.95;;
19038;SDS011;9652;49.014;12.052;2023-06-22T11:51:50;6.47;;;2.95;;
19038;SDS011;9652;49.014;12.052;2023-06-22T11:54:17;5.15;;;2.67;;
19038;SDS011;9652;49.014;12.052;2023-06-22T11:56:44;5.00;;;2.55;;
19038;SDS011;9652;49.014;12.052;2023-06-22T11:59:12;4.65;;;2.90;;
19038;SDS011;9652;49.014;12.052;2023-06-22T12:01:39;5.10;;;3.38;;
19038;SDS011;9652;49.014;12.052;2023-06-22T12:04:06;5.40;;;3.28;;
19038;SDS011;9652;49.014;12.052;2023-06-22T12:06:37;5.13;;;3.22;;
19038;SDS011;9652;49.014;12.052;2023-06-22T12:09:07;7.00;;;3.50;;
19038;SDS011;9652;49.014;12.052;2023-06-22T12:11:34;4.60;;;2.92;;
19038;SDS011;9652;49.014;12.052;2023-06-22T12:14:01;4.53;;;3.00;;
19038;SDS011;9652;49.014;12.052;2023-06-22T12:16:29;4.80;;;3.10;;
19038;SDS011;9652;49.014;12.052;2023-06-22T12:18:56;6.88;;;3.00;;
19038;SDS011;9652;49.014;12.052;2023-06-22T12:21:23;6.72;;;3.67;;
19038;SDS011;9652;49.014;12.052;2023-06-22T12:23:50;4.50;;;3.03;;
19038;SDS011;9652;49.014;12.052;2023-06-22T12:26:17;4.53;;;2.75;;
19038;SDS011;9652;49.014;12.052;2023-06-22T12:28:44;8.20;;;3.53;;
19038;SDS011;9652;49.014;12.052;2023-06-22T12:31:11;6.82;;;3.22;;
19038;SDS011;9652;49.014;12.052;2023-06-22T12:33:40;4.93;;;3.03;;
19038;SDS011;9652;49.014;12.052;2023-06-22T12:36:07;6.65;;;3.20;;
19038;SDS011;9652;49.014;12.052;2023-06-22T12:38:35;5.13;;;3.20;;
19038;SDS011;9652;49.014;12.052;2023-06-22T12:41:02;4.75;;;3.30;;
19038;SDS011;9652;49.014;12.052;2023-06-22T12:43:28;7.93;;;2.90;;
19038;SDS011;9652;49.014;12.052;2023-06-22T12:45:56;5.30;;;2.50;;
19038;SDS011;9652;49.014;12.052;2023-06-22T12:48:22;5.72;;;2.90;;
19038;SDS011;9652;49.014;12.052;2023-06-22T12:50:53;4.65;;;3.00;;
19038;SDS011;9652;49.014;12.052;2023-06-22T12:53:20;6.93;;;3.50;;
19038;SDS011;9652;49.014;12.052;2023-06-22T12:55:48;4.68;;;2.83;;
19038;SDS011;9652;49.014;12.052;2023-06-22T12:58:15;4.35;;;3.10;;
19038;SDS011;9652;49.014;12.052;2023-06-22T13:00:42;4.82;;;2.88;;
19038;SDS011;9652;49.014;12.052;2023-06-22T13:03:09;7.18;;;3.38;;
19038;SDS011;9652;49.014;12.052;2023-06-22T13:05:36;6.53;;;3.25;;
19038;SDS011;9652;49.014;12.052;2023-06-22T13:08:05;4.93;;;2.72;;
19038;SDS011;9652;49.014;12.052;2023-06-22T13:10:33;7.85;;;3.13;;
19038;SDS011;9652;49.014;12.052;2023-06-22T13:13:00;5.30;;;2.60;;
19038;SDS011;9652;49.014;12.052;2023-06-22T13:15:27;7.63;;;3.42;;
19038;SDS011;9652;49.014;12.052;2023-06-22T13:17:55;4.18;;;2.40;;
19038;SDS011;9652;49.014;12.052;2023-06-22T13:20:22;5.30;;;2.50;;
19038;SDS011;9652;49.014;12.052;2023-06-22T13:22:49;5.75;;;2.60;;
19038;SDS011;9652;49.014;12.052;2023-06-22T13:25:17;7.50;;;2.85;;
19038;SDS011;9652;49.014;12.052;2023-06-22T13:27:47;5.68;;;3.40;;
19038;SDS011;9652;49.014;12.052;2023-06-22T13:30:14;5.40;;;2.33;;
19038;SDS011;9652;49.014;12.052;2023-06-22T13:32:41;5.07;;;2.70;;
19038;SDS011;9652;49.014;12.052;2023-06-22T13:35:08;3.88;;;2.78;;
19038;SDS011;9652;49.014;12.052;2023-06-22T13:37:36;4.80;;;2.38;;
19038;SDS011;9652;49.014;12.052;2023-06-22T13:40:03;2.95;;;2.65;;
19038;SDS011;9652;49.014;12.052;2023-06-22T13:42:33;3.50;;;2.58;;
19038;SDS011;9652;49.014;12.052;2023-06-22T13:45:00;6.13;;;3.00;;
19038;SDS011;9652;49.014;12.052;2023-06-22T13:47:28;3.67;;;2.67;;
19038;SDS011;9652;49.014;12.052;2023-06-22T13:49:55;7.78;;;2.88;;
19038;SDS011;9652;49.014;12.052;2023-06-22T13:52:23;2.80;;;2.35;;
19038;SDS011;9652;49.014;12.052;2023-06-22T13:54:51;5.18;;;2.67;;
19038;SDS011;9652;49.014;12.052;2023-06-22T13:57:18;3.53;;;2.65;;
19038;SDS011;9652;49.014;12.052;2023-06-22T13:59:46;5.90;;;2.85;;
19038;SDS011;9652;49.014;12.052;2023-06-22T14:02:13;4.05;;;2.78;;
19038;SDS011;9652;49.014;12.052;2023-06-22T14:04:40;3.72;;;2.63;;
19038;SDS011;9652;49.014;12.052;2023-06-22T14:07:07;3.72;;;2.38;;
19038;SDS011;9652;49.014;12.052;2023-06-22T14:09:34;3.90;;;2.67;;
19038;SDS011;9652;49.014;12.052;2023-06-22T14:12:05;5.70;;;2.85;;
19038;SDS011;9652;49.014;12.052;2023-06-22T14:14:33;3.70;;;2.47;;
19038;SDS011;9652;49.014;12.052;2023-06-22T14:17:02;7.07;;;2.65;;
19038;SDS011;9652;49.014;12.052;2023-06-22T14:19:30;5.05;;;3.42;;
19038;SDS011;9652;49.014;12.052;2023-06-22T14:21:57;8.07;;;3.10;;
19038;SDS011;9652;49.014;12.052;2023-06-22T14:24:24;4.90;;;2.45;;
19038;SDS011;9652;49.014;12.052;2023-06-22T14:26:52;3.33;;;2.38;;
19038;SDS011;9652;49.014;12.052;2023-06-22T14:29:20;4.78;;;2.88;;
19038;SDS011;9652;49.014;12.052;2023-06-22T14:31:48;7.10;;;2.85;;
19038;SDS011;9652;49.014;12.052;2023-06-22T14:34:17;3.53;;;2.50;;
19038;SDS011;9652;49.014;12.052;2023-06-22T14:36:44;3.50;;;2.35;;
19038;SDS011;9652;49.014;12.052;2023-06-22T14:39:11;4.82;;;2.65;;
19038;SDS011;9652;49.014;12.052;2023-06-22T14:41:38;6.05;;;3.00;;
19038;SDS011;9652;49.014;12.052;2023-06-22T14:44:05;4.72;;;2.63;;
19038;SDS011;9652;49.014;12.052;2023-06-22T14:46:32;6.60;;;2.80;;
19038;SDS011;9652;49.014;12.052;2023-06-22T14:48:59;4.18;;;2.65;;
19038;SDS011;9652;49.014;12.052;2023-06-22T14:51:27;2.65;;;2.25;;
19038;SDS011;9652;49.014;12.052;2023-06-22T14:53:54;5.53;;;2.33;;